Terminal Aerodrome Forecast
Issued by NWS

Home | Current Version | Previous Version | Graphics & Text | Print | Product List | Glossary On
Versions: 1 2 3 4 5 6 7 8 9 10 11 12 13
000
FTUS43 KUNR 261130
TAFGCC
TAF
KGCC 261130Z 2612/2712 17010KT P6SM BKN120
     FM262100 33010KT P6SM BKN100
      TEMPO 2621/2624 -TSRA BKN080CB=

USA.gov is the U.S. government's official web portal to all federal, state and local government web resources and services.